Terminal Aerodrome Forecast
Issued by NWS

Home | Current Version | Previous Version | Text Only | Print | Product List | Glossary Off
Versions: 1 2 3 4 5 6 7 8 9 10 11 12 13 14 15 16

320
FTUS43 KIWX 172330
TAFSBN
TAF
KSBN 172330Z 1800/1824 32007KT P6SM SCT035
     FM181400 11011KT P6SM BKN120
     FM181900 09014KT 5SM -SHRA BKN020 OVC035=

USA.gov is the U.S. government's official web portal to all federal, state and local government web resources and services.